createdAt,value
2022-08-27T00:01:08.988Z,17.90
2022-08-27T00:05:20.840Z,17.90
2022-08-27T00:09:28.174Z,17.80
2022-08-27T00:13:35.870Z,17.80
2022-08-27T00:17:45.375Z,17.80
2022-08-27T00:21:52.202Z,17.80
2022-08-27T00:25:59.567Z,17.80
2022-08-27T00:30:10.772Z,17.90
2022-08-27T00:34:17.613Z,17.90
2022-08-27T00:38:24.504Z,17.90
2022-08-27T00:42:31.824Z,17.80
2022-08-27T00:46:54.664Z,17.90
2022-08-27T00:51:02.115Z,17.80
2022-08-27T00:55:13.585Z,17.70
2022-08-27T00:59:24.284Z,17.60
2022-08-27T01:03:31.956Z,17.50
2022-08-27T01:07:41.502Z,17.60
2022-08-27T01:11:49.493Z,17.50
2022-08-27T01:15:59.132Z,17.60
2022-08-27T01:20:11.696Z,17.50
2022-08-27T01:24:33.418Z,17.50
2022-08-27T01:28:42.081Z,17.50
2022-08-27T01:32:49.379Z,17.50
2022-08-27T01:36:57.519Z,17.40
2022-08-27T01:41:04.808Z,17.30
2022-08-27T01:45:25.072Z,17.20
2022-08-27T01:49:31.845Z,17.30
2022-08-27T01:53:38.645Z,17.10
2022-08-27T01:57:46.215Z,17.10
2022-08-27T02:01:55.945Z,17.10
2022-08-27T02:06:08.147Z,17.00
2022-08-27T02:10:19.576Z,16.90
2022-08-27T02:14:27.545Z,16.90
2022-08-27T02:18:37.100Z,16.80
2022-08-27T02:22:44.817Z,16.70
2022-08-27T02:26:51.625Z,16.60
2022-08-27T02:30:58.557Z,16.50
2022-08-27T02:35:06.291Z,16.40
2022-08-27T02:39:13.426Z,16.30
2022-08-27T02:43:25.342Z,16.30
2022-08-27T02:47:33.122Z,16.10
2022-08-27T02:51:39.908Z,16.00
2022-08-27T02:55:48.109Z,15.90
2022-08-27T02:59:54.967Z,15.90
2022-08-27T03:04:02.341Z,15.90
2022-08-27T03:08:10.081Z,16.00
2022-08-27T03:12:16.997Z,16.00
2022-08-27T03:16:23.848Z,16.00
2022-08-27T03:20:31.297Z,16.00
2022-08-27T03:24:40.483Z,15.90
2022-08-27T03:28:47.920Z,15.90
2022-08-27T03:32:54.880Z,15.80
2022-08-27T03:37:01.880Z,15.90
2022-08-27T03:41:08.757Z,15.90
2022-08-27T03:45:16.382Z,15.80
2022-08-27T03:49:23.665Z,15.80
2022-08-27T03:53:30.617Z,15.70
2022-08-27T03:57:37.471Z,15.70
2022-08-27T04:01:45.369Z,15.70
2022-08-27T04:05:56.797Z,15.70
2022-08-27T04:10:04.349Z,15.70
2022-08-27T04:14:26.143Z,15.60
2022-08-27T04:18:34.553Z,15.60
2022-08-27T04:22:41.773Z,15.60
2022-08-27T04:26:48.620Z,15.60
2022-08-27T04:30:55.444Z,15.60
2022-08-27T04:35:02.349Z,15.50
2022-08-27T04:39:09.218Z,15.50
2022-08-27T04:43:17.689Z,15.50
2022-08-27T04:47:24.666Z,15.40
2022-08-27T04:51:31.571Z,15.40
2022-08-27T04:55:46.647Z,15.30
2022-08-27T04:59:53.584Z,15.30
2022-08-27T05:04:00.918Z,15.20
2022-08-27T05:08:08.602Z,15.10
2022-08-27T05:12:15.474Z,15.10
2022-08-27T05:16:23.493Z,15.00
2022-08-27T05:20:31.549Z,15.10
2022-08-27T05:24:38.904Z,15.10
2022-08-27T05:28:45.994Z,15.20
2022-08-27T05:32:52.787Z,15.30
2022-08-27T05:36:59.563Z,15.30
2022-08-27T05:41:12.607Z,15.40
2022-08-27T05:45:19.604Z,15.50
2022-08-27T05:49:26.441Z,15.50
2022-08-27T05:53:33.233Z,15.60
2022-08-27T05:57:40.017Z,15.60
2022-08-27T06:01:50.265Z,15.60
2022-08-27T06:06:02.026Z,15.70
2022-08-27T06:10:09.518Z,15.80
2022-08-27T06:14:16.610Z,15.90
2022-08-27T06:18:23.410Z,16.10
2022-08-27T06:22:30.209Z,16.30
2022-08-27T06:26:37.037Z,16.50
2022-08-27T06:30:43.878Z,16.80
2022-08-27T06:34:50.713Z,16.90
2022-08-27T06:38:58.369Z,16.90
2022-08-27T06:43:05.322Z,17.00
2022-08-27T06:47:12.173Z,17.20
2022-08-27T06:51:22.190Z,17.20
2022-08-27T06:55:28.980Z,17.30
2022-08-27T06:59:35.946Z,17.40
2022-08-27T07:03:44.112Z,17.40
2022-08-27T07:07:50.893Z,17.40
2022-08-27T07:11:58.813Z,17.50
2022-08-27T07:16:08.388Z,17.50
2022-08-27T07:20:17.676Z,17.60
2022-08-27T07:24:24.623Z,17.50
2022-08-27T07:28:31.381Z,17.60
2022-08-27T07:32:38.514Z,17.70
2022-08-27T07:36:45.349Z,17.80
2022-08-27T07:40:52.553Z,18.00
2022-08-27T07:44:59.559Z,17.90
2022-08-27T07:49:06.348Z,17.90
2022-08-27T07:53:13.165Z,17.90
2022-08-27T07:57:19.935Z,18.00
2022-08-27T08:01:27.919Z,18.10
2022-08-27T08:05:34.867Z,18.20
2022-08-27T08:09:41.916Z,18.30
2022-08-27T08:13:48.970Z,18.60
2022-08-27T08:17:56.062Z,18.90
2022-08-27T08:22:05.778Z,19.20
2022-08-27T08:26:13.237Z,19.50
2022-08-27T08:30:20.283Z,19.70
2022-08-27T08:34:28.915Z,20.00
2022-08-27T08:38:36.185Z,20.20
2022-08-27T08:42:52.757Z,20.70
2022-08-27T08:47:04.697Z,21.00
2022-08-27T08:51:24.727Z,21.30
2022-08-27T08:55:46.764Z,20.80
2022-08-27T09:00:13.346Z,20.40
2022-08-27T09:04:20.325Z,20.10
2022-08-27T09:08:41.943Z,19.90
2022-08-27T09:12:49.019Z,19.70
2022-08-27T09:16:59.107Z,19.80
2022-08-27T09:21:27.690Z,20.20
2022-08-27T09:25:38.330Z,20.20
2022-08-27T09:29:51.798Z,19.90
2022-08-27T09:33:59.168Z,19.90
2022-08-27T09:38:06.161Z,19.90
2022-08-27T09:42:34.356Z,20.40
2022-08-27T09:46:52.572Z,20.60
2022-08-27T09:51:08.871Z,21.20
2022-08-27T09:55:27.193Z,21.20
2022-08-27T09:59:51.161Z,20.70
2022-08-27T10:04:16.973Z,20.80
2022-08-27T10:08:39.129Z,21.80
2022-08-27T10:13:01.782Z,21.40
2022-08-27T10:17:27.676Z,22.40
2022-08-27T10:21:44.602Z,23.40
2022-08-27T10:26:03.417Z,24.20
2022-08-27T10:30:18.896Z,23.50
2022-08-27T10:34:57.218Z,22.80
2022-08-27T10:39:19.397Z,22.20
2022-08-27T10:43:54.629Z,21.80
2022-08-27T10:48:10.710Z,21.80
2022-08-27T10:52:24.625Z,22.30
2022-08-27T10:56:38.808Z,22.30
2022-08-27T11:01:11.663Z,21.90
2022-08-27T11:05:24.140Z,21.60
2022-08-27T11:09:44.161Z,21.80
2022-08-27T11:13:53.061Z,22.10
2022-08-27T11:18:41.726Z,22.30
2022-08-27T11:22:56.638Z,22.40
2022-08-27T11:27:06.365Z,22.40
2022-08-27T11:31:31.430Z,22.50
2022-08-27T11:35:50.406Z,22.70
2022-08-27T11:40:19.055Z,22.70
2022-08-27T11:44:27.320Z,22.30
2022-08-27T11:48:55.302Z,22.00
2022-08-27T11:53:07.957Z,21.40
2022-08-27T11:57:28.038Z,21.50
2022-08-27T12:01:34.949Z,21.80
2022-08-27T12:06:05.270Z,22.00
2022-08-27T12:10:56.083Z,22.10
2022-08-27T12:15:10.386Z,22.50
2022-08-27T12:19:33.326Z,22.50
2022-08-27T12:23:56.289Z,22.60
2022-08-27T12:28:07.336Z,22.50
2022-08-27T12:32:32.317Z,22.50
2022-08-27T12:36:39.771Z,22.30
2022-08-27T12:41:00.330Z,22.30
2022-08-27T12:45:07.567Z,22.30
2022-08-27T12:49:37.028Z,22.50
2022-08-27T12:53:58.136Z,22.70
2022-08-27T12:58:22.316Z,22.60
2022-08-27T13:02:42.523Z,22.60
2022-08-27T13:06:49.728Z,22.90
2022-08-27T13:10:57.872Z,23.00
2022-08-27T13:15:10.714Z,22.90
2022-08-27T13:19:29.309Z,22.80
2022-08-27T13:23:36.194Z,22.70
2022-08-27T13:27:53.235Z,22.50
2022-08-27T13:32:00.941Z,22.40
2022-08-27T13:36:09.665Z,22.40
2022-08-27T13:40:59.157Z,22.50
2022-08-27T13:45:07.766Z,22.60
2022-08-27T13:49:18.816Z,22.60
2022-08-27T13:53:48.326Z,22.80
2022-08-27T13:57:55.594Z,22.80
2022-08-27T14:02:11.362Z,22.90
2022-08-27T14:06:35.733Z,23.00
2022-08-27T14:10:49.379Z,23.10
2022-08-27T14:14:57.209Z,22.90
2022-08-27T14:19:14.030Z,23.00
2022-08-27T14:23:21.073Z,23.00
2022-08-27T14:27:29.113Z,23.00
2022-08-27T14:31:35.954Z,23.10
2022-08-27T14:35:43.744Z,23.00
2022-08-27T14:39:50.833Z,22.80
2022-08-27T14:43:57.653Z,22.80
2022-08-27T14:48:15.936Z,22.90
2022-08-27T14:52:25.501Z,22.80
2022-08-27T14:56:32.283Z,22.80
2022-08-27T15:00:39.150Z,22.80
2022-08-27T15:04:47.857Z,22.70
2022-08-27T15:08:54.989Z,22.70
2022-08-27T15:13:02.509Z,22.80
2022-08-27T15:17:11.118Z,22.90
2022-08-27T15:21:38.950Z,22.90
2022-08-27T15:25:46.425Z,22.80
2022-08-27T15:29:53.558Z,22.60
2022-08-27T15:34:00.400Z,22.80
2022-08-27T15:38:07.184Z,22.90
2022-08-27T15:42:14.208Z,22.90
2022-08-27T15:46:21.876Z,23.00
2022-08-27T15:50:31.168Z,22.90
2022-08-27T15:54:38.320Z,22.70
2022-08-27T15:58:45.201Z,22.60
2022-08-27T16:02:52.569Z,22.50
2022-08-27T16:06:59.357Z,22.50
2022-08-27T16:11:06.151Z,22.30
2022-08-27T16:15:14.423Z,22.20
2022-08-27T16:19:21.370Z,22.10
2022-08-27T16:23:29.409Z,22.00
2022-08-27T16:27:37.528Z,21.80
2022-08-27T16:31:45.380Z,21.90
2022-08-27T16:35:52.780Z,21.90
2022-08-27T16:39:59.762Z,21.70
2022-08-27T16:44:06.877Z,21.70
2022-08-27T16:48:32.245Z,21.80
2022-08-27T16:52:39.002Z,21.80
2022-08-27T16:56:46.330Z,21.60
2022-08-27T17:00:56.473Z,21.60
2022-08-27T17:09:30.238Z,21.40
2022-08-27T17:13:39.597Z,21.40
2022-08-27T17:17:46.496Z,21.30
2022-08-27T17:21:54.905Z,21.30
2022-08-27T17:26:03.319Z,21.10
2022-08-27T17:30:10.616Z,21.00
2022-08-27T17:34:21.772Z,20.80
2022-08-27T17:38:30.251Z,20.80
2022-08-27T17:42:37.968Z,20.80
2022-08-27T17:46:44.731Z,20.70
2022-08-27T17:50:53.309Z,20.60
2022-08-27T17:55:00.077Z,20.40
2022-08-27T17:59:06.769Z,20.20
2022-08-27T18:03:19.017Z,20.00
2022-08-27T18:07:25.899Z,19.80
2022-08-27T18:11:33.311Z,19.70
2022-08-27T18:15:41.274Z,19.70
2022-08-27T18:19:51.192Z,19.60
2022-08-27T18:23:58.239Z,19.50
2022-08-27T18:28:10.921Z,19.50
2022-08-27T18:32:17.877Z,19.50
2022-08-27T18:36:25.248Z,19.30
2022-08-27T18:40:40.292Z,19.30
2022-08-27T18:44:48.156Z,19.30
2022-08-27T18:48:54.885Z,19.30
2022-08-27T18:53:02.818Z,19.20
2022-08-27T18:57:09.569Z,19.30
2022-08-27T19:01:24.096Z,19.10
2022-08-27T19:05:31.013Z,19.00
2022-08-27T19:09:38.354Z,18.80
2022-08-27T19:13:45.717Z,18.80
2022-08-27T19:17:59.069Z,18.70
2022-08-27T19:22:07.089Z,18.70
2022-08-27T19:26:18.293Z,18.60
2022-08-27T19:30:25.150Z,18.60
2022-08-27T19:34:31.856Z,18.50
2022-08-27T19:38:38.964Z,18.40
2022-08-27T19:42:45.668Z,18.30
2022-08-27T19:46:55.796Z,18.30
2022-08-27T19:51:03.209Z,18.20
2022-08-27T19:55:13.995Z,18.20
2022-08-27T19:59:21.812Z,18.10
2022-08-27T20:03:28.738Z,18.10
2022-08-27T20:07:35.529Z,18.00
2022-08-27T20:11:43.549Z,18.00
2022-08-27T20:15:51.107Z,17.70
2022-08-27T20:19:58.915Z,17.70
2022-08-27T20:24:06.306Z,17.60
2022-08-27T20:28:37.688Z,17.50
2022-08-27T20:32:39.788Z,17.30
2022-08-27T20:36:46.527Z,17.20
2022-08-27T20:40:53.402Z,17.00
2022-08-27T20:45:00.206Z,16.90
2022-08-27T20:49:07.919Z,16.80
2022-08-27T20:53:15.141Z,16.80
2022-08-27T20:57:21.928Z,16.80
2022-08-27T21:01:29.045Z,16.60
2022-08-27T21:05:36.976Z,16.60
2022-08-27T21:09:56.585Z,16.70
2022-08-27T21:14:04.321Z,16.70
2022-08-27T21:18:13.469Z,16.70
2022-08-27T21:22:21.280Z,16.60
2022-08-27T21:26:28.048Z,16.50
2022-08-27T21:30:36.315Z,16.50
2022-08-27T21:34:43.095Z,16.50
2022-08-27T21:38:49.929Z,16.50
2022-08-27T21:42:58.330Z,16.40
2022-08-27T21:47:05.564Z,16.40
2022-08-27T21:51:15.222Z,16.30
2022-08-27T21:55:31.443Z,16.30
2022-08-27T21:59:49.171Z,16.20
2022-08-27T22:03:55.912Z,16.20
2022-08-27T22:08:02.881Z,16.20
2022-08-27T22:12:09.833Z,16.10
2022-08-27T22:16:16.619Z,16.00
2022-08-27T22:20:23.480Z,16.00
2022-08-27T22:24:30.200Z,15.90
2022-08-27T22:28:36.940Z,15.90
2022-08-27T22:32:43.724Z,15.90
2022-08-27T22:36:50.453Z,15.80
2022-08-27T22:40:57.218Z,15.80
2022-08-27T22:45:05.515Z,15.80
2022-08-27T22:49:12.318Z,15.70
2022-08-27T22:53:19.371Z,15.60
2022-08-27T22:57:26.241Z,15.60
2022-08-27T23:01:33.364Z,15.50
2022-08-27T23:05:41.958Z,15.50
2022-08-27T23:09:49.025Z,15.50
2022-08-27T23:13:55.796Z,15.50
2022-08-27T23:18:02.578Z,15.40
2022-08-27T23:22:09.602Z,15.30
2022-08-27T23:26:34.813Z,15.10
2022-08-27T23:30:41.731Z,15.10
2022-08-27T23:34:48.480Z,15.10
2022-08-27T23:38:55.286Z,15.10
2022-08-27T23:43:03.117Z,15.00
2022-08-27T23:47:10.106Z,15.00
2022-08-27T23:51:16.804Z,14.90
2022-08-27T23:55:24.047Z,14.90
2022-08-27T23:59:31.041Z,14.90
